createdAt,value
2022-11-29T00:01:26.442Z,6.40
2022-11-29T00:03:54.081Z,6.47
2022-11-29T00:06:23.680Z,6.43
2022-11-29T00:08:50.785Z,5.97
2022-11-29T00:11:40.537Z,6.35
2022-11-29T00:14:09.164Z,6.13
2022-11-29T00:16:36.604Z,6.63
2022-11-29T00:21:30.106Z,4.60
2022-11-29T00:23:56.858Z,5.03
2022-11-29T00:26:23.833Z,7.93
2022-11-29T00:28:50.961Z,7.28
2022-11-29T00:31:20.815Z,7.97
2022-11-29T00:33:47.810Z,7.13
2022-11-29T00:36:14.853Z,7.38
2022-11-29T00:38:42.113Z,7.53
2022-11-29T00:41:10.307Z,8.15
2022-11-29T00:43:37.157Z,7.10
2022-11-29T00:46:04.111Z,8.00
2022-11-29T00:48:31.026Z,8.20
2022-11-29T00:50:57.879Z,7.53
2022-11-29T00:53:25.242Z,7.25
2022-11-29T00:55:53.197Z,6.50
2022-11-29T00:58:20.691Z,8.07
2022-11-29T01:03:15.877Z,7.25
2022-11-29T01:05:43.433Z,8.13
2022-11-29T01:10:37.534Z,7.40
2022-11-29T01:13:04.860Z,7.90
2022-11-29T01:15:31.924Z,7.05
2022-11-29T01:17:59.319Z,7.15
2022-11-29T01:20:26.772Z,7.50
2022-11-29T01:25:20.706Z,8.40
2022-11-29T01:27:47.599Z,7.28
2022-11-29T01:30:14.797Z,7.35
2022-11-29T01:32:41.581Z,6.93
2022-11-29T01:35:08.850Z,6.47
2022-11-29T01:37:35.906Z,6.70
2022-11-29T01:40:02.915Z,7.35
2022-11-29T01:42:29.679Z,7.78
2022-11-29T01:45:21.698Z,5.72
2022-11-29T01:47:52.614Z,7.80
2022-11-29T01:50:19.981Z,6.70
2022-11-29T01:52:47.853Z,7.43
2022-11-29T01:55:14.724Z,7.18
2022-11-29T01:57:43.553Z,7.90
2022-11-29T02:00:13.716Z,7.57
2022-11-29T02:02:57.311Z,6.55
2022-11-29T02:05:25.287Z,7.38
2022-11-29T02:07:55.098Z,6.38
2022-11-29T02:10:55.780Z,7.15
2022-11-29T02:13:31.036Z,6.70
2022-11-29T02:16:15.495Z,6.88
2022-11-29T02:19:25.483Z,6.25
2022-11-29T02:21:55.044Z,6.03
2022-11-29T02:24:24.813Z,6.50
2022-11-29T02:27:12.485Z,5.88
2022-11-29T02:30:00.776Z,5.22
2022-11-29T02:32:45.829Z,5.55
2022-11-29T02:35:21.695Z,5.40
2022-11-29T02:38:07.409Z,5.05
2022-11-29T02:40:52.690Z,5.15
2022-11-29T02:43:45.646Z,5.32
2022-11-29T02:46:49.989Z,5.25
2022-11-29T02:49:31.684Z,4.82
2022-11-29T02:52:30.714Z,5.82
2022-11-29T02:55:25.906Z,5.57
2022-11-29T02:58:06.482Z,5.10
2022-11-29T03:00:38.679Z,4.93
2022-11-29T03:03:30.907Z,5.03
2022-11-29T03:06:17.599Z,4.97
2022-11-29T03:08:59.199Z,5.40
2022-11-29T03:11:51.065Z,5.22
2022-11-29T03:14:30.939Z,4.75
2022-11-29T03:17:34.993Z,4.38
2022-11-29T03:20:23.411Z,5.70
2022-11-29T03:23:24.104Z,6.18
2022-11-29T03:26:04.809Z,5.22
2022-11-29T03:28:34.699Z,5.35
2022-11-29T03:31:21.278Z,6.18
2022-11-29T03:34:24.494Z,5.70
2022-11-29T03:37:15.563Z,6.40
2022-11-29T03:39:54.290Z,6.80
2022-11-29T03:42:41.277Z,7.00
2022-11-29T03:45:18.785Z,6.35
2022-11-29T03:47:55.459Z,6.47
2022-11-29T03:50:42.123Z,6.40
2022-11-29T03:53:31.750Z,7.35
2022-11-29T03:56:04.861Z,7.15
2022-11-29T03:58:50.456Z,8.45
2022-11-29T04:01:42.426Z,7.80
2022-11-29T04:04:54.719Z,7.45
2022-11-29T04:07:43.091Z,7.72
2022-11-29T04:10:45.194Z,7.43
2022-11-29T04:13:35.412Z,7.25
2022-11-29T04:16:11.064Z,7.28
2022-11-29T04:19:22.751Z,7.70
2022-11-29T04:22:25.877Z,8.82
2022-11-29T04:25:20.328Z,8.75
2022-11-29T04:27:59.067Z,7.63
2022-11-29T04:30:30.125Z,9.27
2022-11-29T04:33:34.175Z,7.72
2022-11-29T04:36:26.105Z,8.27
2022-11-29T04:39:23.444Z,8.18
2022-11-29T04:42:26.437Z,8.93
2022-11-29T04:45:10.517Z,7.45
2022-11-29T04:47:59.085Z,9.45
2022-11-29T04:51:01.118Z,8.23
2022-11-29T04:53:49.763Z,8.25
2022-11-29T04:56:28.466Z,8.27
2022-11-29T04:59:23.646Z,8.07
2022-11-29T05:02:08.881Z,7.57
2022-11-29T05:04:44.836Z,7.10
2022-11-29T05:07:21.554Z,7.80
2022-11-29T05:10:19.349Z,8.10
2022-11-29T05:12:59.666Z,7.40
2022-11-29T05:15:45.233Z,7.75
2022-11-29T05:18:26.855Z,7.05
2022-11-29T05:21:06.145Z,8.20
2022-11-29T05:23:48.837Z,7.70
2022-11-29T05:26:28.953Z,6.65
2022-11-29T05:29:26.889Z,7.53
2022-11-29T05:32:16.893Z,6.85
2022-11-29T05:35:25.123Z,7.22
2022-11-29T05:37:55.122Z,6.90
2022-11-29T05:40:27.973Z,6.70
2022-11-29T05:43:14.256Z,7.13
2022-11-29T05:45:57.876Z,7.78
2022-11-29T05:48:51.781Z,6.82
2022-11-29T05:51:28.920Z,6.82
2022-11-29T05:53:55.658Z,7.47
2022-11-29T05:56:52.878Z,4.97
2022-11-29T05:59:24.612Z,6.75
2022-11-29T06:01:54.204Z,5.90
2022-11-29T06:04:35.416Z,6.95
2022-11-29T06:07:38.711Z,6.93
2022-11-29T06:10:14.958Z,6.10
2022-11-29T06:12:47.101Z,6.57
2022-11-29T06:15:48.660Z,7.05
2022-11-29T06:18:24.906Z,8.77
2022-11-29T06:20:59.911Z,8.43
2022-11-29T06:23:36.454Z,8.15
2022-11-29T06:26:26.789Z,9.45
2022-11-29T06:29:20.519Z,9.00
2022-11-29T06:31:57.712Z,9.48
2022-11-29T06:34:40.762Z,9.82
2022-11-29T06:37:31.377Z,9.20
2022-11-29T06:39:58.369Z,10.25
2022-11-29T06:42:25.158Z,10.68
2022-11-29T06:44:52.271Z,9.30
2022-11-29T06:47:26.985Z,10.18
2022-11-29T06:50:03.917Z,9.57
2022-11-29T06:52:39.280Z,9.90
2022-11-29T06:55:13.199Z,8.82
2022-11-29T06:57:40.154Z,8.88
2022-11-29T07:00:57.801Z,7.40
2022-11-29T07:03:55.410Z,10.52
2022-11-29T07:06:27.400Z,10.23
2022-11-29T07:09:01.786Z,9.18
2022-11-29T07:11:28.999Z,9.75
2022-11-29T07:13:56.384Z,8.25
2022-11-29T07:16:41.904Z,8.55
2022-11-29T07:19:20.266Z,9.93
2022-11-29T07:22:01.717Z,8.93
2022-11-29T07:24:51.018Z,10.15
2022-11-29T07:27:38.551Z,8.18
2022-11-29T07:30:11.015Z,8.15
2022-11-29T07:33:00.569Z,9.82
2022-11-29T07:35:39.538Z,9.15
2022-11-29T07:38:35.928Z,8.60
2022-11-29T07:41:19.123Z,8.27
2022-11-29T07:44:05.278Z,7.38
2022-11-29T07:46:32.132Z,7.03
2022-11-29T07:48:58.905Z,6.13
2022-11-29T07:51:25.839Z,10.57
2022-11-29T07:53:52.648Z,9.27
2022-11-29T07:56:19.482Z,9.27
2022-11-29T07:58:46.696Z,8.30
2022-11-29T08:01:13.532Z,10.07
2022-11-29T08:03:42.182Z,6.35
2022-11-29T08:06:08.918Z,8.88
2022-11-29T08:08:40.580Z,8.10
2022-11-29T08:11:12.050Z,9.30
2022-11-29T08:13:38.802Z,9.60
2022-11-29T08:16:05.768Z,9.35
2022-11-29T08:18:32.676Z,10.13
2022-11-29T08:20:59.447Z,9.18
2022-11-29T08:23:26.340Z,8.63
2022-11-29T08:25:59.893Z,9.57
2022-11-29T08:28:27.134Z,9.90
2022-11-29T08:31:20.465Z,8.70
2022-11-29T08:33:47.771Z,9.73
2022-11-29T08:36:18.483Z,7.50
2022-11-29T08:38:45.965Z,8.80
2022-11-29T08:43:41.438Z,8.85
2022-11-29T08:46:10.476Z,9.15
2022-11-29T08:48:40.603Z,8.40
2022-11-29T08:51:07.575Z,6.13
2022-11-29T08:53:44.507Z,9.30
2022-11-29T08:56:53.450Z,8.85
2022-11-29T08:59:00.726Z,8.75
2022-11-29T09:01:29.033Z,8.50
2022-11-29T09:03:59.365Z,7.40
2022-11-29T09:06:31.857Z,8.30
2022-11-29T09:09:00.154Z,8.18
2022-11-29T09:11:28.972Z,8.10
2022-11-29T09:14:01.551Z,8.05
2022-11-29T09:16:34.224Z,8.02
2022-11-29T09:19:01.787Z,7.68
2022-11-29T09:21:31.103Z,7.35
2022-11-29T09:24:02.473Z,8.18
2022-11-29T09:26:32.549Z,7.28
2022-11-29T09:29:01.251Z,7.60
2022-11-29T09:31:30.401Z,7.93
2022-11-29T09:33:57.484Z,8.82
2022-11-29T09:36:28.924Z,8.30
2022-11-29T09:38:57.368Z,7.82
2022-11-29T09:41:55.420Z,7.72
2022-11-29T09:44:59.208Z,7.50
2022-11-29T09:47:44.551Z,6.93
2022-11-29T09:50:21.238Z,8.40
2022-11-29T09:53:06.167Z,7.57
2022-11-29T09:55:55.991Z,7.78
2022-11-29T09:58:26.907Z,7.65
2022-11-29T10:01:02.728Z,6.63
2022-11-29T10:03:38.168Z,7.20
2022-11-29T10:06:09.685Z,6.75
2022-11-29T10:08:50.966Z,6.57
2022-11-29T10:11:23.537Z,6.72
2022-11-29T10:13:54.304Z,7.22
2022-11-29T10:16:41.835Z,6.40
2022-11-29T10:19:29.918Z,6.82
2022-11-29T10:22:17.672Z,6.80
2022-11-29T10:24:48.775Z,6.40
2022-11-29T10:27:23.003Z,7.03
2022-11-29T10:29:53.788Z,7.30
2022-11-29T10:32:22.583Z,6.70
2022-11-29T10:34:50.112Z,6.60
2022-11-29T10:39:59.913Z,8.27
2022-11-29T10:42:47.444Z,6.35
2022-11-29T10:45:30.978Z,7.55
2022-11-29T10:48:11.921Z,7.82
2022-11-29T10:50:43.832Z,7.47
2022-11-29T10:53:15.062Z,7.20
2022-11-29T10:56:05.698Z,8.13
2022-11-29T10:58:32.813Z,8.20
2022-11-29T11:01:06.499Z,7.32
2022-11-29T11:03:53.443Z,7.72
2022-11-29T11:06:23.118Z,6.45
2022-11-29T11:08:55.923Z,10.10
2022-11-29T11:11:33.581Z,9.60
2022-11-29T11:14:06.724Z,9.02
2022-11-29T11:16:37.292Z,9.18
2022-11-29T11:19:33.051Z,8.05
2022-11-29T11:22:02.019Z,8.85
2022-11-29T11:24:34.293Z,8.95
2022-11-29T11:27:01.958Z,9.77
2022-11-29T11:29:46.722Z,10.32
2022-11-29T11:32:19.173Z,9.85
2022-11-29T11:35:00.809Z,9.95
2022-11-29T11:37:33.045Z,10.18
2022-11-29T11:40:28.868Z,10.15
2022-11-29T11:43:01.499Z,7.23
2022-11-29T11:45:36.986Z,10.27
2022-11-29T11:48:14.881Z,9.48
2022-11-29T11:50:51.498Z,9.20
2022-11-29T11:53:23.982Z,8.40
2022-11-29T11:56:00.513Z,9.48
2022-11-29T11:58:29.142Z,11.32
2022-11-29T12:01:12.466Z,10.48
2022-11-29T12:04:16.579Z,9.77
2022-11-29T12:06:52.662Z,11.10
2022-11-29T12:09:32.597Z,11.45
2022-11-29T12:12:20.937Z,10.45
2022-11-29T12:15:04.394Z,11.52
2022-11-29T12:17:49.690Z,12.45
2022-11-29T12:20:33.754Z,10.93
2022-11-29T12:23:16.944Z,10.07
2022-11-29T12:26:13.723Z,10.60
2022-11-29T12:28:46.774Z,9.60
2022-11-29T12:31:35.246Z,9.65
2022-11-29T12:34:27.038Z,10.50
2022-11-29T12:37:16.458Z,9.40
2022-11-29T12:40:05.547Z,9.55
2022-11-29T12:43:02.261Z,10.38
2022-11-29T12:45:53.765Z,8.32
2022-11-29T12:48:37.661Z,10.02
2022-11-29T12:51:35.090Z,11.50
2022-11-29T12:54:29.574Z,10.93
2022-11-29T12:57:33.847Z,10.45
2022-11-29T13:00:08.159Z,10.63
2022-11-29T13:02:49.023Z,11.23
2022-11-29T13:05:39.330Z,9.80
2022-11-29T13:08:36.394Z,10.20
2022-11-29T13:11:17.858Z,11.48
2022-11-29T13:14:03.810Z,11.63
2022-11-29T13:16:53.639Z,11.18
2022-11-29T13:19:32.412Z,10.82
2022-11-29T13:22:20.053Z,11.85
2022-11-29T13:24:50.719Z,11.77
2022-11-29T13:27:28.445Z,12.38
2022-11-29T13:29:56.699Z,12.38
2022-11-29T13:32:39.486Z,13.48
2022-11-29T13:35:15.068Z,12.82
2022-11-29T13:38:16.978Z,13.13
2022-11-29T13:40:52.073Z,15.10
2022-11-29T13:43:30.304Z,15.20
2022-11-29T13:46:23.616Z,15.63
2022-11-29T13:48:53.421Z,15.55
2022-11-29T13:51:32.212Z,16.38
2022-11-29T13:54:07.347Z,16.13
2022-11-29T13:56:46.303Z,15.98
2022-11-29T13:59:30.429Z,15.80
2022-11-29T14:01:58.386Z,16.77
2022-11-29T14:04:28.174Z,16.80
2022-11-29T14:07:05.218Z,16.00
2022-11-29T14:09:37.539Z,16.40
2022-11-29T14:12:27.421Z,16.90
2022-11-29T14:15:02.997Z,17.73
2022-11-29T14:17:52.666Z,16.58
2022-11-29T14:20:22.408Z,18.58
2022-11-29T14:23:04.542Z,16.92
2022-11-29T14:25:51.120Z,17.67
2022-11-29T14:28:21.873Z,18.08
2022-11-29T14:30:53.408Z,16.70
2022-11-29T14:33:35.310Z,17.38
2022-11-29T14:36:38.971Z,16.67
2022-11-29T14:39:29.769Z,17.83
2022-11-29T14:42:16.921Z,16.92
2022-11-29T14:47:34.323Z,16.75
2022-11-29T14:50:06.420Z,16.67
2022-11-29T14:52:40.776Z,16.13
2022-11-29T14:55:16.733Z,15.80
2022-11-29T14:58:02.041Z,15.05
2022-11-29T15:01:03.848Z,15.13
2022-11-29T15:03:38.894Z,15.93
2022-11-29T15:06:14.482Z,15.75
2022-11-29T15:09:05.948Z,14.23
2022-11-29T15:11:55.692Z,14.30
2022-11-29T15:14:32.400Z,15.13
2022-11-29T15:17:13.933Z,15.18
2022-11-29T15:20:16.310Z,16.55
2022-11-29T15:22:54.011Z,15.27
2022-11-29T15:25:25.871Z,13.48
2022-11-29T15:27:57.502Z,14.35
2022-11-29T15:30:30.507Z,16.02
2022-11-29T15:32:58.953Z,14.35
2022-11-29T15:35:25.891Z,13.63
2022-11-29T15:37:53.711Z,13.38
2022-11-29T15:40:21.871Z,13.70
2022-11-29T15:43:16.791Z,15.02
2022-11-29T15:45:52.089Z,12.63
2022-11-29T15:48:28.837Z,13.70
2022-11-29T15:51:05.073Z,14.48
2022-11-29T15:53:49.978Z,12.25
2022-11-29T15:56:26.092Z,12.60
2022-11-29T15:58:59.371Z,12.48
2022-11-29T16:01:26.210Z,12.55
2022-11-29T16:03:55.773Z,12.55
2022-11-29T16:06:44.231Z,12.85
2022-11-29T16:09:20.976Z,13.32
2022-11-29T16:11:48.542Z,11.18
2022-11-29T16:16:52.337Z,14.23
2022-11-29T16:19:28.195Z,12.98
2022-11-29T16:22:21.339Z,13.30
2022-11-29T16:25:02.569Z,12.73
2022-11-29T16:27:34.999Z,12.90
2022-11-29T16:30:02.657Z,13.65
2022-11-29T16:32:38.276Z,14.75
2022-11-29T16:35:20.675Z,12.23
2022-11-29T16:37:48.207Z,13.77
2022-11-29T16:43:04.337Z,12.00
2022-11-29T16:45:36.228Z,13.10
2022-11-29T16:48:24.868Z,12.68
2022-11-29T16:51:37.568Z,13.07
2022-11-29T16:54:26.076Z,12.40
2022-11-29T16:56:54.456Z,13.05
2022-11-29T16:59:27.911Z,13.23
2022-11-29T17:01:56.312Z,13.32
2022-11-29T17:04:24.603Z,12.20
2022-11-29T17:06:55.820Z,13.05
2022-11-29T17:09:26.971Z,12.77
2022-11-29T17:11:55.357Z,13.73
2022-11-29T17:14:22.711Z,12.18
2022-11-29T17:16:49.657Z,12.30
2022-11-29T17:19:16.659Z,12.93
2022-11-29T17:21:43.758Z,8.80
2022-11-29T17:24:13.587Z,12.05
2022-11-29T17:26:41.142Z,11.73
2022-11-29T17:31:34.733Z,10.00
2022-11-29T17:34:01.959Z,13.50
2022-11-29T17:36:29.043Z,12.48
2022-11-29T17:38:58.175Z,11.77
2022-11-29T17:41:26.081Z,11.32
2022-11-29T17:43:54.292Z,13.38
2022-11-29T17:46:23.614Z,10.02
2022-11-29T17:48:50.744Z,11.75
2022-11-29T17:51:49.916Z,11.27
2022-11-29T17:54:07.922Z,11.00
2022-11-29T17:56:34.778Z,10.55
2022-11-29T17:59:03.531Z,8.90
2022-11-29T18:01:33.075Z,10.45
2022-11-29T18:04:01.719Z,12.75
2022-11-29T18:06:31.215Z,10.13
2022-11-29T18:08:59.962Z,11.57
2022-11-29T18:11:40.326Z,9.38
2022-11-29T18:14:13.603Z,12.27
2022-11-29T18:16:40.639Z,11.43
2022-11-29T18:19:11.033Z,8.02
2022-11-29T18:21:38.211Z,10.75
2022-11-29T18:24:06.798Z,11.13
2022-11-29T18:26:35.102Z,10.85
2022-11-29T18:29:02.426Z,9.48
2022-11-29T18:31:31.588Z,10.35
2022-11-29T18:34:00.693Z,11.13
2022-11-29T18:36:30.446Z,10.75
2022-11-29T18:38:59.722Z,9.55
2022-11-29T18:41:29.043Z,10.48
2022-11-29T18:44:07.413Z,10.13
2022-11-29T18:46:36.984Z,11.32
2022-11-29T18:49:05.985Z,10.32
2022-11-29T18:51:34.342Z,11.63
2022-11-29T18:54:01.898Z,11.02
2022-11-29T18:59:01.837Z,11.27
2022-11-29T19:01:30.667Z,10.63
2022-11-29T19:03:59.349Z,10.68
2022-11-29T19:06:30.028Z,10.40
2022-11-29T19:09:00.120Z,10.23
2022-11-29T19:11:29.522Z,10.48
2022-11-29T19:13:59.785Z,10.43
2022-11-29T19:16:29.096Z,9.27
2022-11-29T19:18:57.281Z,11.63
2022-11-29T19:21:25.974Z,11.93
2022-11-29T19:23:55.603Z,10.85
2022-11-29T19:26:23.626Z,12.52
2022-11-29T19:28:50.658Z,12.48
2022-11-29T19:31:19.524Z,12.75
2022-11-29T19:33:46.915Z,12.85
2022-11-29T19:36:18.195Z,12.05
2022-11-29T19:38:50.233Z,12.95
2022-11-29T19:41:30.885Z,11.77
2022-11-29T19:43:59.590Z,12.13
2022-11-29T19:46:30.182Z,12.52
2022-11-29T19:48:58.163Z,12.93
2022-11-29T19:51:26.387Z,12.55
2022-11-29T19:53:55.278Z,13.02
2022-11-29T19:56:22.750Z,12.93
2022-11-29T20:01:27.760Z,13.90
2022-11-29T20:03:58.524Z,14.18
2022-11-29T20:06:30.168Z,14.93
2022-11-29T20:08:57.660Z,14.18
2022-11-29T20:13:55.537Z,13.77
2022-11-29T20:16:23.375Z,14.98
2022-11-29T20:18:52.838Z,16.27
2022-11-29T20:21:29.952Z,15.68
2022-11-29T20:23:59.431Z,16.05
2022-11-29T20:26:27.600Z,14.85
2022-11-29T20:28:54.781Z,16.23
2022-11-29T20:31:23.002Z,17.00
2022-11-29T20:33:51.769Z,15.73
2022-11-29T20:36:56.110Z,17.40
2022-11-29T20:39:38.985Z,16.55
2022-11-29T20:42:31.474Z,17.67
2022-11-29T20:45:01.025Z,16.17
2022-11-29T20:47:47.452Z,17.35
2022-11-29T20:50:23.864Z,17.17
2022-11-29T20:52:51.320Z,13.45
2022-11-29T20:55:18.376Z,17.30
2022-11-29T20:57:45.196Z,17.33
2022-11-29T21:00:12.683Z,17.48
2022-11-29T21:05:16.395Z,16.83
2022-11-29T21:07:43.851Z,16.55
2022-11-29T21:12:38.573Z,15.18
2022-11-29T21:15:06.113Z,15.70
2022-11-29T21:20:01.216Z,14.73
2022-11-29T21:22:34.992Z,14.13
2022-11-29T21:25:20.337Z,16.08
2022-11-29T21:27:47.488Z,14.70
2022-11-29T21:30:20.442Z,14.88
2022-11-29T21:32:47.853Z,14.45
2022-11-29T21:35:15.660Z,12.95
2022-11-29T21:37:43.193Z,13.68
2022-11-29T21:45:13.283Z,15.15
2022-11-29T21:47:42.179Z,14.38
2022-11-29T21:50:09.327Z,15.23
2022-11-29T21:52:36.139Z,13.85
2022-11-29T21:55:03.098Z,14.65
2022-11-29T21:57:29.870Z,14.98
2022-11-29T21:59:56.613Z,13.48
2022-11-29T22:02:23.583Z,13.95
2022-11-29T22:04:50.422Z,14.18
2022-11-29T22:07:17.308Z,13.88
2022-11-29T22:09:44.105Z,10.77
2022-11-29T22:12:32.633Z,14.00
2022-11-29T22:14:57.653Z,15.02
2022-11-29T22:17:24.451Z,10.85
2022-11-29T22:19:51.190Z,10.13
2022-11-29T22:22:18.019Z,14.38
2022-11-29T22:24:45.135Z,13.57
2022-11-29T22:27:12.490Z,15.57
2022-11-29T22:29:39.255Z,16.30
2022-11-29T22:32:06.162Z,14.80
2022-11-29T22:34:32.990Z,15.20
2022-11-29T22:36:59.810Z,10.15
2022-11-29T22:39:26.604Z,11.90
2022-11-29T22:41:54.959Z,9.43
2022-11-29T22:44:23.466Z,15.07
2022-11-29T22:46:50.572Z,15.02
2022-11-29T22:49:17.425Z,15.85
2022-11-29T22:51:44.185Z,11.75
2022-11-29T22:54:11.687Z,16.45
2022-11-29T22:56:41.232Z,15.50
2022-11-29T22:59:09.109Z,15.73
2022-11-29T23:01:38.069Z,16.77
2022-11-29T23:04:07.109Z,16.15
2022-11-29T23:06:39.011Z,15.80
2022-11-29T23:09:11.989Z,16.38
2022-11-29T23:11:38.869Z,15.65
2022-11-29T23:14:05.679Z,16.67
2022-11-29T23:16:33.389Z,15.88
2022-11-29T23:19:00.874Z,18.13
2022-11-29T23:21:32.468Z,15.63
2022-11-29T23:24:00.844Z,16.30
2022-11-29T23:26:28.769Z,17.40
2022-11-29T23:28:56.482Z,17.27
2022-11-29T23:31:24.130Z,17.50
2022-11-29T23:33:50.973Z,18.42
2022-11-29T23:36:18.047Z,18.13
2022-11-29T23:38:45.226Z,17.30
2022-11-29T23:41:12.637Z,16.85
2022-11-29T23:43:40.647Z,15.93
2022-11-29T23:46:13.313Z,16.25
2022-11-29T23:48:40.680Z,16.88
2022-11-29T23:51:07.578Z,16.20
2022-11-29T23:53:34.423Z,12.05
2022-11-29T23:56:03.567Z,16.50
2022-11-29T23:58:31.304Z,17.90
